Time;durP1;ratioP1;P1;durP2;ratioP2;P2;SDS_P1;SDS_P2;PMS_P1;PMS_P2;Temp;Humidity;BMP_temperature;BMP_pressure;BME280_temperature;BME280_humidity;BME280_pressure;Samples;Min_cycle;Max_cycle;Signal;HPM_P1;HPM_P2
2021/09/28 00:00:26;;;;;;;11.13;3.15;;;13.80;81.40;;;;;;5086262;28;20036;-72
2021/09/28 00:02:52;;;;;;;9.52;3.30;;;13.80;81.70;;;;;;5083903;28;20032;-75
2021/09/28 00:05:18;;;;;;;7.07;2.55;;;13.70;81.80;;;;;;5077159;28;20494;-75
2021/09/28 00:07:43;;;;;;;8.70;3.10;;;13.70;82.00;;;;;;5077252;28;20074;-73
2021/09/28 00:10:09;;;;;;;8.60;3.15;;;13.80;82.20;;;;;;5070893;28;20138;-72
2021/09/28 00:12:35;;;;;;;8.93;3.20;;;13.80;82.20;;;;;;5076682;28;20415;-73
2021/09/28 00:15:01;;;;;;;7.55;3.15;;;13.70;82.30;;;;;;5082588;28;20051;-76
2021/09/28 00:17:27;;;;;;;7.53;3.00;;;13.80;82.40;;;;;;5067978;28;20052;-73
2021/09/28 00:19:52;;;;;;;10.15;3.08;;;13.70;82.30;;;;;;5068750;28;20033;-72
2021/09/28 00:22:18;;;;;;;6.88;2.70;;;13.70;82.40;;;;;;5082322;28;20031;-72
2021/09/28 00:24:44;;;;;;;8.75;2.95;;;13.70;82.60;;;;;;5079238;28;20025;-75
2021/09/28 00:27:10;;;;;;;8.80;2.95;;;13.70;82.50;;;;;;5073465;28;20024;-72
2021/09/28 00:29:35;;;;;;;10.45;2.90;;;13.70;82.60;;;;;;5071694;28;20121;-75
2021/09/28 00:32:01;;;;;;;7.30;2.85;;;13.70;82.60;;;;;;5084826;28;20047;-75
2021/09/28 00:34:27;;;;;;;10.02;2.80;;;13.70;82.50;;;;;;5071200;28;20106;-76
2021/09/28 00:36:53;;;;;;;8.63;2.90;;;13.70;82.50;;;;;;5079002;28;20028;-75
2021/09/28 00:39:19;;;;;;;8.52;3.58;;;13.70;82.40;;;;;;5072329;28;20051;-73
2021/09/28 00:41:45;;;;;;;11.60;3.47;;;13.70;82.50;;;;;;5066988;28;20016;-75
2021/09/28 00:44:11;;;;;;;8.68;3.00;;;13.70;82.70;;;;;;5083511;28;20038;-73
2021/09/28 00:46:36;;;;;;;8.68;3.00;;;13.60;82.70;;;;;;5079233;28;20028;-72
2021/09/28 00:49:02;;;;;;;10.25;3.03;;;13.70;83.40;;;;;;5083310;28;20043;-72
2021/09/28 00:51:28;;;;;;;8.60;3.08;;;13.70;82.80;;;;;;5067821;28;20133;-72
2021/09/28 00:53:55;;;;;;;10.55;3.42;;;13.70;82.80;;;;;;5085827;28;20089;-73
2021/09/28 00:56:22;;;;;;;12.85;3.13;;;13.70;82.90;;;;;;5088155;28;20027;-74
2021/09/28 00:58:48;;;;;;;11.65;3.15;;;13.60;82.90;;;;;;5083941;28;20031;-75
2021/09/28 01:01:15;;;;;;;7.05;2.97;;;13.60;83.00;;;;;;5079826;28;20039;-75
2021/09/28 01:03:41;;;;;;;9.50;3.33;;;13.60;83.00;;;;;;5076618;28;20031;-75
2021/09/28 01:06:08;;;;;;;9.52;3.17;;;13.60;83.10;;;;;;5078887;28;20032;-75
2021/09/28 01:08:33;;;;;;;13.23;2.72;;;13.60;83.10;;;;;;5078987;28;20063;-75
2021/09/28 01:11:00;;;;;;;9.45;2.80;;;13.60;83.10;;;;;;5087001;28;20506;-73
2021/09/28 01:13:27;;;;;;;8.25;2.78;;;13.60;83.10;;;;;;5083298;28;20382;-75
2021/09/28 01:15:58;;;;;;;8.73;3.33;;;13.60;83.10;;;;;;5077916;28;20115;-72
2021/09/28 01:18:25;;;;;;;8.32;2.78;;;13.60;83.20;;;;;;5073982;28;20504;-72
2021/09/28 01:20:52;;;;;;;10.60;3.13;;;13.60;83.20;;;;;;5088121;28;20103;-73
2021/09/28 01:23:17;;;;;;;15.52;3.10;;;13.50;83.10;;;;;;5080430;28;20029;-75
2021/09/28 01:25:43;;;;;;;11.88;3.75;;;13.50;83.00;;;;;;5070547;28;20152;-75
2021/09/28 01:28:09;;;;;;;10.40;3.33;;;13.60;83.10;;;;;;5076274;28;20474;-72
2021/09/28 01:30:35;;;;;;;8.10;3.00;;;13.50;83.10;;;;;;5065978;28;20059;-75
2021/09/28 01:33:01;;;;;;;7.30;3.08;;;13.50;83.10;;;;;;5073007;28;20022;-75
2021/09/28 01:35:27;;;;;;;10.88;3.50;;;13.50;83.10;;;;;;5081543;28;20028;-75
2021/09/28 01:37:52;;;;;;;10.73;3.00;;;13.50;83.20;;;;;;5076991;28;20513;-75
2021/09/28 01:40:18;;;;;;;15.18;2.88;;;13.50;83.30;;;;;;5081854;28;20021;-72
2021/09/28 01:42:44;;;;;;;10.20;3.05;;;13.40;83.20;;;;;;5054193;28;20069;-73
2021/09/28 01:45:10;;;;;;;8.20;2.60;;;13.40;83.10;;;;;;5079336;28;20032;-72
2021/09/28 01:47:36;;;;;;;8.57;3.30;;;13.40;83.00;;;;;;5084926;28;20037;-73
2021/09/28 01:50:02;;;;;;;10.15;3.20;;;13.40;83.00;;;;;;5074762;28;20552;-74
2021/09/28 01:52:28;;;;;;;10.63;2.70;;;13.40;83.10;;;;;;5070434;28;20447;-75
2021/09/28 01:54:53;;;;;;;11.80;2.75;;;13.40;83.20;;;;;;5087379;28;20081;-75
2021/09/28 01:57:19;;;;;;;10.65;2.78;;;13.30;83.20;;;;;;5085462;28;20020;-72
2021/09/28 01:59:45;;;;;;;9.05;2.80;;;13.40;83.30;;;;;;5084959;28;20058;-72
2021/09/28 02:02:10;;;;;;;10.88;2.40;;;13.40;83.30;;;;;;5084094;28;20024;-75
2021/09/28 02:04:36;;;;;;;9.73;3.05;;;13.30;83.20;;;;;;5075111;28;20024;-72
2021/09/28 02:07:02;;;;;;;9.43;2.95;;;13.30;83.20;;;;;;5073567;28;20386;-75
2021/09/28 02:09:28;;;;;;;9.90;2.78;;;13.30;83.30;;;;;;5087595;28;20455;-72
2021/09/28 02:11:53;;;;;;;10.45;3.03;;;13.30;83.30;;;;;;5081765;28;20060;-75
2021/09/28 02:14:21;;;;;;;10.85;3.10;;;13.30;83.40;;;;;;5078465;28;20026;-72
2021/09/28 02:16:47;;;;;;;11.80;3.13;;;13.30;83.20;;;;;;5080549;28;20021;-73
2021/09/28 02:19:13;;;;;;;8.60;2.80;;;13.20;83.00;;;;;;5079184;28;20028;-76
2021/09/28 02:21:39;;;;;;;11.98;3.00;;;13.20;83.00;;;;;;5081191;28;20024;-76
2021/09/28 02:24:05;;;;;;;9.38;2.78;;;13.20;83.00;;;;;;5079550;28;20435;-75
2021/09/28 02:26:30;;;;;;;8.07;2.65;;;13.20;83.00;;;;;;5064666;28;20040;-72
2021/09/28 02:28:56;;;;;;;8.85;2.83;;;13.20;83.10;;;;;;5077503;28;20504;-74
2021/09/28 02:31:22;;;;;;;9.48;2.85;;;13.20;83.00;;;;;;5081214;28;20366;-75
2021/09/28 02:33:48;;;;;;;8.82;3.08;;;13.20;83.00;;;;;;5086526;28;20378;-75
2021/09/28 02:36:14;;;;;;;6.65;2.30;;;13.10;82.90;;;;;;5079728;28;20107;-72
2021/09/28 02:38:39;;;;;;;11.85;2.90;;;13.10;82.80;;;;;;5069364;28;20101;-73
2021/09/28 02:41:05;;;;;;;9.65;2.72;;;13.10;82.70;;;;;;5088278;28;20028;-75
2021/09/28 02:43:31;;;;;;;7.53;2.60;;;13.10;82.70;;;;;;5083170;28;20036;-72
2021/09/28 02:45:57;;;;;;;7.25;2.53;;;13.00;82.80;;;;;;5081624;28;20410;-72
2021/09/28 02:48:23;;;;;;;9.85;2.72;;;13.00;82.90;;;;;;5068889;28;20068;-75
2021/09/28 02:50:51;;;;;;;9.00;2.50;;;13.00;82.90;;;;;;5069967;28;20459;-75
2021/09/28 02:53:16;;;;;;;8.52;3.08;;;13.00;82.90;;;;;;5070842;28;20031;-72
2021/09/28 02:55:42;;;;;;;8.50;2.50;;;13.00;82.70;;;;;;5089470;28;20469;-72
2021/09/28 02:58:08;;;;;;;7.97;2.72;;;12.90;82.70;;;;;;5079158;28;20025;-72
2021/09/28 03:00:34;;;;;;;8.20;2.70;;;12.90;82.60;;;;;;5074181;28;20510;-72
2021/09/28 03:03:00;;;;;;;8.70;2.90;;;12.90;82.50;;;;;;5074174;28;20475;-74
2021/09/28 03:05:25;;;;;;;8.38;2.97;;;12.90;82.60;;;;;;5073128;28;20043;-75
2021/09/28 03:07:51;;;;;;;10.60;3.20;;;12.90;82.50;;;;;;5069829;28;20036;-72
2021/09/28 03:10:17;;;;;;;8.27;2.30;;;12.80;82.40;;;;;;5066706;28;20056;-72
2021/09/28 03:12:42;;;;;;;6.65;2.63;;;12.80;82.30;;;;;;5073784;28;20028;-75
2021/09/28 03:15:09;;;;;;;6.38;2.70;;;12.80;82.10;;;;;;5071153;28;20051;-74
2021/09/28 03:17:34;;;;;;;6.85;2.33;;;12.80;82.10;;;;;;5069572;28;20012;-75
2021/09/28 03:20:00;;;;;;;7.97;2.60;;;12.80;82.00;;;;;;5079593;28;20032;-72
2021/09/28 03:22:26;;;;;;;8.65;2.58;;;12.70;82.00;;;;;;5065266;28;20022;-72
2021/09/28 03:24:51;;;;;;;9.57;3.55;;;12.70;82.10;;;;;;5075498;28;20060;-72
2021/09/28 03:27:17;;;;;;;11.43;2.70;;;12.70;82.20;;;;;;5082469;28;20496;-75
2021/09/28 03:29:43;;;;;;;7.95;2.58;;;12.70;82.20;;;;;;5078168;28;20028;-75
2021/09/28 03:32:09;;;;;;;10.85;3.17;;;12.60;82.20;;;;;;5077465;28;20032;-75
2021/09/28 03:34:34;;;;;;;12.50;3.05;;;12.60;82.40;;;;;;5067866;28;20059;-75
2021/09/28 03:37:00;;;;;;;13.68;3.25;;;12.60;82.60;;;;;;5053761;28;20127;-75
2021/09/28 03:39:26;;;;;;;13.77;3.08;;;12.60;83.00;;;;;;5076244;28;20024;-75
2021/09/28 03:41:51;;;;;;;5.65;2.28;;;12.60;83.00;;;;;;5074023;28;20065;-75
2021/09/28 03:44:17;;;;;;;10.52;2.63;;;12.60;82.90;;;;;;5078007;28;20036;-75
2021/09/28 03:46:43;;;;;;;7.40;2.78;;;12.60;82.90;;;;;;5075547;28;20036;-75
2021/09/28 03:49:08;;;;;;;9.85;2.65;;;12.60;82.80;;;;;;5060335;28;20047;-73
2021/09/28 03:51:37;;;;;;;6.55;2.97;;;12.60;82.70;;;;;;5073452;28;20029;-72
2021/09/28 03:54:03;;;;;;;7.22;2.13;;;12.60;82.80;;;;;;5066784;28;20059;-73
2021/09/28 03:56:29;;;;;;;10.55;2.50;;;12.50;82.80;;;;;;5084006;28;20024;-75
2021/09/28 03:58:54;;;;;;;12.82;2.65;;;12.50;83.00;;;;;;5080275;28;20028;-75
2021/09/28 04:01:20;;;;;;;9.25;2.40;;;12.50;83.30;;;;;;5071920;28;20036;-75
2021/09/28 04:03:46;;;;;;;8.10;2.53;;;12.50;83.50;;;;;;5074266;28;20040;-73
2021/09/28 04:06:12;;;;;;;9.98;2.50;;;12.50;83.60;;;;;;5059219;28;20057;-75
2021/09/28 04:08:37;;;;;;;10.05;2.70;;;12.50;83.60;;;;;;5069174;28;20040;-73
2021/09/28 04:11:03;;;;;;;8.90;2.72;;;12.50;83.70;;;;;;5079263;28;20498;-76
2021/09/28 04:13:29;;;;;;;9.20;2.70;;;12.50;83.80;;;;;;5070400;28;20040;-76
2021/09/28 04:15:55;;;;;;;12.18;2.60;;;12.50;83.80;;;;;;5083470;28;20021;-75
2021/09/28 04:18:21;;;;;;;8.27;3.10;;;12.50;83.70;;;;;;5071698;28;20032;-75
2021/09/28 04:20:47;;;;;;;8.65;2.60;;;12.50;84.00;;;;;;5077157;28;20177;-75
2021/09/28 04:23:14;;;;;;;9.00;2.30;;;12.50;84.00;;;;;;5073766;28;20028;-76
2021/09/28 04:25:41;;;;;;;7.97;2.33;;;12.50;83.90;;;;;;5066152;28;20513;-73
2021/09/28 04:28:09;;;;;;;5.80;2.45;;;12.50;83.80;;;;;;5071806;28;20024;-76
2021/09/28 04:30:35;;;;;;;8.68;2.35;;;12.40;83.70;;;;;;5086424;28;20035;-76
2021/09/28 04:33:00;;;;;;;8.82;2.30;;;12.40;83.60;;;;;;5083893;28;20623;-76
2021/09/28 04:35:28;;;;;;;7.35;2.20;;;12.40;83.60;;;;;;5077459;28;20052;-72
2021/09/28 04:37:54;;;;;;;11.40;2.65;;;12.40;83.60;;;;;;5071794;28;20391;-76
2021/09/28 04:40:19;;;;;;;7.60;2.00;;;12.40;83.60;;;;;;5067580;28;20033;-76
2021/09/28 04:42:45;;;;;;;5.72;2.13;;;12.30;83.40;;;;;;5079799;28;20107;-76
2021/09/28 04:45:11;;;;;;;9.50;2.70;;;12.30;83.30;;;;;;5084587;28;20482;-73
2021/09/28 04:47:38;;;;;;;7.20;2.35;;;12.30;83.20;;;;;;5082599;28;20036;-73
2021/09/28 04:50:04;;;;;;;8.02;2.55;;;12.30;83.20;;;;;;5085913;28;20035;-73
2021/09/28 04:52:29;;;;;;;10.55;2.45;;;12.30;83.10;;;;;;5072934;28;20094;-73
2021/09/28 04:54:55;;;;;;;10.95;2.60;;;12.30;83.00;;;;;;5078953;28;20025;-73
2021/09/28 04:57:21;;;;;;;7.78;2.85;;;12.30;82.90;;;;;;5075927;28;20091;-73
2021/09/28 04:59:48;;;;;;;6.65;2.25;;;12.30;82.90;;;;;;5086743;28;20073;-75
2021/09/28 05:02:14;;;;;;;12.75;2.47;;;12.30;82.70;;;;;;5073963;28;20435;-75
2021/09/28 05:04:41;;;;;;;6.40;2.00;;;12.20;82.60;;;;;;5077170;28;20470;-76
2021/09/28 05:07:06;;;;;;;7.40;2.28;;;12.20;82.60;;;;;;5090692;28;20082;-75
2021/09/28 05:09:32;;;;;;;6.15;2.20;;;12.20;82.50;;;;;;5086329;28;20490;-75
2021/09/28 05:11:59;;;;;;;6.60;2.20;;;12.20;83.10;;;;;;5092867;28;20123;-75
2021/09/28 05:14:26;;;;;;;5.70;2.28;;;12.20;82.40;;;;;;5087938;28;20017;-72
2021/09/28 05:16:51;;;;;;;7.13;2.20;;;12.10;82.20;;;;;;5085060;28;20513;-75
2021/09/28 05:19:17;;;;;;;5.75;2.08;;;12.10;82.20;;;;;;5077925;28;20036;-73
2021/09/28 05:21:43;;;;;;;7.10;2.40;;;12.10;82.00;;;;;;5092734;28;20387;-73
2021/09/28 05:24:09;;;;;;;6.35;2.10;;;12.10;82.00;;;;;;5088753;28;20020;-75
2021/09/28 05:26:35;;;;;;;5.97;2.10;;;12.10;81.90;;;;;;5089490;28;20103;-73
2021/09/28 05:29:01;;;;;;;5.65;2.20;;;12.00;81.80;;;;;;5079160;28;20032;-72
2021/09/28 05:31:27;;;;;;;6.30;2.40;;;12.00;81.80;;;;;;5091092;28;20385;-77
2021/09/28 05:33:53;;;;;;;6.30;2.03;;;12.00;81.80;;;;;;5083173;28;20513;-75
2021/09/28 05:36:19;;;;;;;8.50;2.28;;;12.00;81.60;;;;;;5090921;28;20024;-73
2021/09/28 05:38:45;;;;;;;5.82;2.20;;;12.00;81.80;;;;;;5089110;28;20033;-76
2021/09/28 05:41:10;;;;;;;6.22;2.65;;;11.90;81.70;;;;;;5087985;28;20388;-72
2021/09/28 05:43:38;;;;;;;4.90;2.15;;;12.00;81.80;;;;;;5091106;28;20028;-72
2021/09/28 05:46:05;;;;;;;9.88;2.20;;;11.90;81.70;;;;;;5085745;28;20120;-72
2021/09/28 05:48:31;;;;;;;6.47;2.13;;;11.90;81.70;;;;;;5074887;28;20520;-73
2021/09/28 05:50:56;;;;;;;4.95;2.20;;;11.90;81.80;;;;;;5076660;28;20037;-73
2021/09/28 05:53:22;;;;;;;10.27;2.53;;;11.90;81.90;;;;;;5084409;28;20062;-72
2021/09/28 05:55:48;;;;;;;4.90;2.13;;;11.90;81.90;;;;;;5081716;28;20039;-76
2021/09/28 05:58:14;;;;;;;9.05;2.33;;;11.80;82.00;;;;;;5075224;28;20470;-76
2021/09/28 06:00:40;;;;;;;6.07;2.10;;;11.90;82.10;;;;;;5054511;28;20552;-75
2021/09/28 06:03:06;;;;;;;5.30;1.70;;;11.90;82.00;;;;;;5075144;28;20043;-73
2021/09/28 06:05:33;;;;;;;7.95;2.35;;;11.90;82.10;;;;;;5070418;28;20036;-76
2021/09/28 06:07:59;;;;;;;6.65;2.40;;;11.90;82.20;;;;;;5077221;28;20366;-76
2021/09/28 06:10:25;;;;;;;6.85;2.28;;;11.90;82.30;;;;;;5079424;28;20039;-72
2021/09/28 06:12:51;;;;;;;7.60;2.47;;;11.90;82.30;;;;;;5078912;28;20032;-73
2021/09/28 06:15:16;;;;;;;12.38;3.33;;;11.90;82.40;;;;;;5077183;28;20067;-72
2021/09/28 06:17:42;;;;;;;6.32;2.10;;;11.90;82.40;;;;;;5077115;28;20501;-73
2021/09/28 06:20:08;;;;;;;6.05;2.25;;;11.90;82.50;;;;;;5094810;28;20533;-72
2021/09/28 06:22:35;;;;;;;7.80;2.42;;;11.90;82.60;;;;;;5075837;28;20051;-72
2021/09/28 06:25:00;;;;;;;5.70;2.10;;;11.90;82.80;;;;;;5093313;28;20052;-72
2021/09/28 06:27:27;;;;;;;6.78;2.10;;;11.90;82.90;;;;;;5080023;28;20490;-75
2021/09/28 06:29:52;;;;;;;8.98;2.25;;;11.90;83.10;;;;;;5091948;28;20035;-75
2021/09/28 06:32:19;;;;;;;9.73;3.75;;;11.90;83.30;;;;;;5088324;28;20389;-75
2021/09/28 06:34:47;;;;;;;9.68;2.67;;;11.90;83.50;;;;;;5086915;28;20020;-72
2021/09/28 06:37:13;;;;;;;7.50;3.10;;;12.00;83.80;;;;;;5082769;28;20038;-72
2021/09/28 06:39:39;;;;;;;7.82;3.00;;;12.00;84.30;;;;;;5089735;28;20111;-72
2021/09/28 06:42:04;;;;;;;14.27;3.90;;;12.00;84.70;;;;;;5084657;28;20367;-75
2021/09/28 06:44:30;;;;;;;8.52;2.90;;;12.00;84.90;;;;;;5084004;28;20359;-75
2021/09/28 06:46:56;;;;;;;11.35;2.60;;;12.10;85.20;;;;;;5068930;28;20024;-75
2021/09/28 06:49:22;;;;;;;6.72;2.30;;;12.10;85.20;;;;;;5084193;28;20032;-75
2021/09/28 06:51:48;;;;;;;8.65;2.78;;;12.20;85.30;;;;;;5077920;28;20024;-75
2021/09/28 06:54:14;;;;;;;11.35;3.10;;;12.20;85.50;;;;;;5087562;28;20051;-75
2021/09/28 06:56:41;;;;;;;13.05;2.95;;;12.20;85.60;;;;;;5092357;28;20031;-75
2021/09/28 06:59:08;;;;;;;9.90;2.78;;;12.30;85.70;;;;;;5072092;28;20047;-75
2021/09/28 07:01:38;;;;;;;11.02;2.97;;;12.30;85.90;;;;;;5083080;28;20390;-74
2021/09/28 07:04:05;;;;;;;13.68;2.72;;;12.30;86.10;;;;;;5084311;28;20489;-75
2021/09/28 07:06:30;;;;;;;9.82;2.70;;;12.40;86.10;;;;;;5087813;28;20093;-74
2021/09/28 07:08:56;;;;;;;10.27;2.65;;;12.40;86.20;;;;;;5074307;28;20040;-75
2021/09/28 07:11:22;;;;;;;12.23;2.70;;;12.50;86.20;;;;;;5085321;28;20040;-74
2021/09/28 07:13:49;;;;;;;4.82;2.30;;;12.50;86.10;;;;;;5076050;28;20013;-72
2021/09/28 07:16:14;;;;;;;10.65;2.72;;;12.60;86.20;;;;;;5075185;28;20027;-72
2021/09/28 07:18:41;;;;;;;8.60;3.00;;;12.60;86.20;;;;;;5071390;28;20033;-75
2021/09/28 07:21:07;;;;;;;14.88;3.50;;;12.70;86.30;;;;;;5084904;28;20065;-75
2021/09/28 07:23:33;;;;;;;12.27;2.80;;;12.70;86.50;;;;;;5085122;28;20505;-74
2021/09/28 07:25:59;;;;;;;6.50;2.72;;;12.70;86.30;;;;;;5088484;28;20024;-74
2021/09/28 07:28:25;;;;;;;12.60;3.50;;;12.80;86.50;;;;;;5087935;28;20490;-75
2021/09/28 07:30:50;;;;;;;9.30;3.65;;;12.80;86.50;;;;;;5090115;28;20028;-75
2021/09/28 07:33:17;;;;;;;11.23;3.95;;;12.80;86.30;;;;;;5071145;28;20111;-72
2021/09/28 07:35:46;;;;;;;14.88;3.85;;;12.90;86.40;;;;;;5069668;28;20028;-75
2021/09/28 07:38:13;;;;;;;11.50;3.67;;;12.90;86.50;;;;;;5076615;28;20024;-75
2021/09/28 07:40:41;;;;;;;16.90;4.65;;;12.90;86.50;;;;;;5075641;28;20506;-75
2021/09/28 07:43:06;;;;;;;12.15;3.88;;;12.90;86.30;;;;;;5077840;28;20091;-75
2021/09/28 07:45:32;;;;;;;7.85;3.47;;;12.90;86.50;;;;;;5080397;28;20162;-76
2021/09/28 07:47:58;;;;;;;12.50;4.30;;;13.00;86.30;;;;;;5084420;28;20039;-75
2021/09/28 07:50:24;;;;;;;10.23;3.28;;;13.00;86.00;;;;;;5071506;28;20047;-75
2021/09/28 07:52:50;;;;;;;18.15;4.35;;;13.10;86.20;;;;;;5071668;28;20478;-73
2021/09/28 07:55:15;;;;;;;13.30;4.18;;;13.10;85.90;;;;;;5069316;28;20493;-72
2021/09/28 07:57:41;;;;;;;8.55;3.40;;;13.10;85.70;;;;;;5087977;28;20026;-72
2021/09/28 08:00:09;;;;;;;11.30;3.53;;;13.20;85.60;;;;;;5090580;28;20032;-72
2021/09/28 08:02:37;;;;;;;8.75;3.22;;;13.20;85.50;;;;;;5075682;28;20086;-73
2021/09/28 08:05:03;;;;;;;11.40;3.90;;;13.20;85.30;;;;;;5072575;28;20033;-72
2021/09/28 08:07:29;;;;;;;10.60;3.60;;;13.30;85.40;;;;;;5065994;28;20055;-73
2021/09/28 08:09:54;;;;;;;9.13;3.08;;;13.30;85.50;;;;;;5066997;28;20051;-72
2021/09/28 08:12:20;;;;;;;10.10;2.85;;;13.40;85.60;;;;;;5090359;28;20398;-72
2021/09/28 08:14:46;;;;;;;10.35;3.17;;;13.50;85.50;;;;;;5071807;28;20035;-75
2021/09/28 08:17:12;;;;;;;12.52;3.40;;;13.60;85.30;;;;;;5060035;28;20466;-75
2021/09/28 08:19:43;;;;;;;11.52;3.33;;;13.60;85.00;;;;;;5078502;28;20463;-72
2021/09/28 08:22:12;;;;;;;10.25;3.50;;;13.70;84.70;;;;;;5079435;28;20020;-72
2021/09/28 08:24:42;;;;;;;14.43;4.68;;;13.70;84.70;;;;;;5081779;28;20114;-72
2021/09/28 08:29:59;;;;;;;11.02;3.40;;;13.80;84.30;;;;;;5080298;28;20159;-75
2021/09/28 08:32:25;;;;;;;10.57;3.03;;;13.80;84.20;;;;;;5082873;28;20024;-75
2021/09/28 08:34:51;;;;;;;13.73;4.45;;;13.80;84.10;;;;;;5081845;28;20032;-76
2021/09/28 08:37:17;;;;;;;9.25;3.05;;;13.90;84.40;;;;;;5082349;28;20020;-75
2021/09/28 08:39:44;;;;;;;13.00;4.40;;;14.00;84.10;;;;;;5078480;28;20039;-75
2021/09/28 08:42:10;;;;;;;10.48;3.53;;;14.10;84.10;;;;;;5082042;28;20024;-72
2021/09/28 08:44:36;;;;;;;10.98;3.25;;;14.20;83.70;;;;;;5080248;28;20036;-72
2021/09/28 08:47:03;;;;;;;14.98;3.80;;;14.30;83.70;;;;;;5082558;28;20039;-72
2021/09/28 08:49:28;;;;;;;9.63;3.30;;;14.40;83.30;;;;;;5081506;28;20146;-72
2021/09/28 08:51:54;;;;;;;11.43;3.70;;;14.50;82.50;;;;;;5084364;28;20055;-72
2021/09/28 08:54:20;;;;;;;13.13;4.20;;;14.50;81.70;;;;;;5083603;28;20078;-72
2021/09/28 08:56:47;;;;;;;11.98;3.67;;;14.60;81.70;;;;;;5080706;28;20035;-73
2021/09/28 08:59:17;;;;;;;9.77;3.17;;;14.60;81.80;;;;;;5083702;28;20103;-72
2021/09/28 09:01:56;;;;;;;8.82;3.05;;;14.70;82.00;;;;;;5082512;28;20097;-72
2021/09/28 09:04:23;;;;;;;11.05;3.83;;;14.80;81.80;;;;;;5071849;28;20032;-72
2021/09/28 09:06:49;;;;;;;9.82;3.05;;;14.90;81.60;;;;;;5087495;28;20077;-72
2021/09/28 09:09:16;;;;;;;14.65;3.65;;;15.00;82.00;;;;;;5067045;28;20032;-76
2021/09/28 09:11:45;;;;;;;11.52;3.88;;;15.10;81.20;;;;;;5054752;28;20040;-73
2021/09/28 09:14:13;;;;;;;9.27;3.58;;;15.20;81.00;;;;;;5071911;28;20029;-75
2021/09/28 09:16:41;;;;;;;19.23;4.00;;;15.30;80.20;;;;;;5077957;28;20038;-75
2021/09/28 09:19:22;;;;;;;10.70;2.60;;;15.40;80.10;;;;;;5081430;28;20036;-75
2021/09/28 09:21:56;;;;;;;13.77;3.97;;;15.50;80.30;;;;;;5073772;28;20375;-72
2021/09/28 09:24:43;;;;;;;9.13;3.22;;;15.50;79.80;;;;;;5091829;28;20040;-72
2021/09/28 09:27:29;;;;;;;13.65;3.05;;;15.60;78.90;;;;;;5080277;28;20047;-72
2021/09/28 09:30:15;;;;;;;12.18;3.83;;;15.60;79.40;;;;;;5079572;28;20089;-72
2021/09/28 09:32:53;;;;;;;10.45;3.17;;;15.60;78.30;;;;;;5086947;28;20059;-72
2021/09/28 09:35:33;;;;;;;11.55;2.95;;;15.70;79.00;;;;;;5084394;28;20021;-72
2021/09/28 09:38:18;;;;;;;9.82;2.70;;;15.80;79.00;;;;;;5071937;28;20028;-72
2021/09/28 09:40:47;;;;;;;11.38;3.58;;;16.00;78.60;;;;;;5079384;28;20035;-72
2021/09/28 09:43:17;;;;;;;13.95;3.55;;;16.00;77.70;;;;;;5084868;28;20351;-72
2021/09/28 09:45:43;;;;;;;13.85;3.85;;;16.10;77.30;;;;;;5082030;28;20031;-72
2021/09/28 09:48:26;;;;;;;11.48;3.42;;;16.20;76.90;;;;;;5079381;28;21381;-72
2021/09/28 09:51:09;;;;;;;9.93;3.20;;;16.30;77.30;;;;;;5074729;28;20388;-73
2021/09/28 09:53:58;;;;;;;12.73;3.10;;;16.40;77.60;;;;;;5085514;28;20028;-75
2021/09/28 09:56:58;;;;;;;11.93;3.10;;;16.50;77.50;;;;;;5080945;28;20214;-73
2021/09/28 09:59:24;;;;;;;11.73;3.45;;;16.60;76.20;;;;;;5077641;28;20383;-73
2021/09/28 10:01:52;;;;;;;9.85;3.30;;;16.70;75.90;;;;;;5075982;28;20043;-72
2021/09/28 10:04:20;;;;;;;12.13;3.70;;;16.80;75.50;;;;;;5084941;28;20039;-75
2021/09/28 10:06:46;;;;;;;11.18;3.03;;;16.80;75.40;;;;;;5083229;28;20028;-76
2021/09/28 10:09:45;;;;;;;11.95;3.22;;;16.80;76.50;;;;;;5080022;28;20028;-73
2021/09/28 10:12:12;;;;;;;14.55;2.88;;;16.90;75.70;;;;;;5076186;28;20588;-76
2021/09/28 10:14:41;;;;;;;10.15;2.65;;;17.00;74.90;;;;;;5078082;28;20035;-76
2021/09/28 10:17:12;;;;;;;9.35;2.80;;;17.20;75.20;;;;;;5082160;28;20020;-76
2021/09/28 10:19:41;;;;;;;16.10;3.25;;;17.30;75.50;;;;;;5077188;28;20077;-76
2021/09/28 10:22:08;;;;;;;12.00;2.83;;;17.40;75.00;;;;;;5083235;28;20413;-75
2021/09/28 10:24:35;;;;;;;8.38;2.45;;;17.60;73.00;;;;;;5075678;28;20020;-75
2021/09/28 10:27:00;;;;;;;11.90;2.70;;;17.70;72.70;;;;;;5080523;28;20451;-75
2021/09/28 10:29:43;;;;;;;10.55;2.88;;;17.80;72.50;;;;;;5086841;28;20020;-73
2021/09/28 10:32:24;;;;;;;11.70;2.83;;;18.00;72.30;;;;;;5084592;28;20039;-73
2021/09/28 10:35:12;;;;;;;11.35;2.80;;;18.10;73.10;;;;;;5087295;28;20371;-73
2021/09/28 10:37:56;;;;;;;9.82;2.70;;;18.20;72.50;;;;;;5085694;28;20016;-73
2021/09/28 10:40:22;;;;;;;15.45;3.13;;;18.30;71.60;;;;;;5081365;28;20036;-75
2021/09/28 10:42:51;;;;;;;8.48;2.22;;;18.40;70.20;;;;;;5075316;28;20090;-75
2021/09/28 10:45:19;;;;;;;11.70;3.17;;;18.50;69.80;;;;;;5074974;28;20397;-75
2021/09/28 10:47:46;;;;;;;12.10;3.00;;;18.50;69.00;;;;;;5082391;28;20024;-73
2021/09/28 10:50:22;;;;;;;6.68;2.20;;;18.60;68.30;;;;;;5083370;28;20088;-74
2021/09/28 10:52:48;;;;;;;11.25;2.45;;;18.70;67.70;;;;;;5082309;28;20097;-74
2021/09/28 10:55:18;;;;;;;8.40;2.92;;;18.80;67.70;;;;;;5080379;28;20023;-74
2021/09/28 10:58:00;;;;;;;9.45;2.40;;;18.90;68.80;;;;;;5081222;28;20028;-71
2021/09/28 11:00:29;;;;;;;7.85;2.42;;;19.10;69.40;;;;;;5076245;28;20107;-74
2021/09/28 11:02:56;;;;;;;9.27;2.75;;;19.30;67.60;;;;;;5083425;28;20160;-74
2021/09/28 11:05:40;;;;;;;13.57;2.80;;;19.40;63.90;;;;;;5087482;28;20481;-73
2021/09/28 11:08:15;;;;;;;12.32;2.60;;;19.40;65.40;;;;;;5078815;28;20580;-74
2021/09/28 11:10:53;;;;;;;9.98;2.40;;;19.50;64.90;;;;;;5079780;28;20041;-75
2021/09/28 11:13:19;;;;;;;7.45;2.10;;;19.50;64.30;;;;;;5083236;28;20398;-74
2021/09/28 11:15:44;;;;;;;11.10;3.05;;;19.50;63.90;;;;;;5075524;28;20028;-74
2021/09/28 11:18:13;;;;;;;10.20;2.17;;;19.60;64.00;;;;;;5082962;28;20031;-74
2021/09/28 11:20:40;;;;;;;10.38;2.35;;;19.70;62.60;;;;;;5077262;28;20664;-74
2021/09/28 11:23:12;;;;;;;13.88;3.28;;;19.70;62.50;;;;;;5071048;28;20101;-74
2021/09/28 11:25:40;;;;;;;14.70;2.55;;;19.90;63.60;;;;;;5075279;28;20028;-74
2021/09/28 11:28:08;;;;;;;8.32;2.42;;;20.10;61.90;;;;;;5082619;28;20522;-73
2021/09/28 11:30:36;;;;;;;6.38;1.88;;;20.20;64.00;;;;;;5074938;28;20032;-74
2021/09/28 11:33:07;;;;;;;12.68;2.60;;;20.40;63.50;;;;;;5080976;28;20105;-74
2021/09/28 11:35:34;;;;;;;7.85;2.17;;;20.50;61.60;;;;;;5080237;28;20505;-74
2021/09/28 11:38:03;;;;;;;8.98;2.47;;;20.50;61.70;;;;;;5066890;28;20139;-74
2021/09/28 11:40:36;;;;;;;12.73;2.85;;;20.40;62.20;;;;;;5079399;28;20382;-74
2021/09/28 11:51:13;;;;;;;10.57;2.30;;;20.40;60.10;;;;;;5127549;27;20108;-74
2021/09/28 11:53:42;;;;;;;8.95;2.83;;;20.20;61.80;;;;;;5098945;28;20106;-71
2021/09/28 11:56:09;;;;;;;8.85;2.50;;;20.10;60.30;;;;;;5105802;28;20081;-71
2021/09/28 11:58:36;;;;;;;9.50;2.55;;;20.20;60.60;;;;;;5109889;28;20046;-71
2021/09/28 12:01:05;;;;;;;9.50;2.50;;;20.20;59.80;;;;;;5103298;28;20039;-71
2021/09/28 12:03:33;;;;;;;11.45;2.70;;;20.30;59.70;;;;;;5086850;28;20035;-72
2021/09/28 12:06:17;;;;;;;10.50;2.35;;;20.30;59.00;;;;;;5067049;28;20047;-74
2021/09/28 12:08:46;;;;;;;7.30;2.10;;;20.50;56.80;;;;;;5089352;28;20025;-72
2021/09/28 12:11:12;;;;;;;10.65;2.53;;;20.50;58.30;;;;;;5091054;28;20486;-71
2021/09/28 12:13:47;;;;;;;12.90;2.72;;;20.50;58.00;;;;;;5102174;28;20020;-74
2021/09/28 12:16:15;;;;;;;4.70;1.60;;;20.50;58.20;;;;;;5105204;28;20062;-74
2021/09/28 12:18:42;;;;;;;7.97;1.90;;;20.70;57.80;;;;;;5115935;28;20046;-74
2021/09/28 12:21:09;;;;;;;8.35;2.63;;;20.80;57.70;;;;;;5108601;28;20027;-73
2021/09/28 12:23:35;;;;;;;8.52;1.90;;;20.90;57.50;;;;;;5080103;28;20115;-72
2021/09/28 12:26:00;;;;;;;8.35;2.10;;;21.00;56.60;;;;;;5068999;28;20475;-72
2021/09/28 12:28:26;;;;;;;7.43;2.40;;;21.00;57.10;;;;;;5105166;28;20077;-74
2021/09/28 12:37:02;;;;;;;6.93;2.00;;;21.10;55.20;;;;;;5096477;27;20124;-74
2021/09/28 12:39:29;;;;;;;10.65;2.47;;;21.00;57.60;;;;;;5091227;28;20306;-74
2021/09/28 12:42:02;;;;;;;12.93;3.00;;;20.80;57.00;;;;;;5097485;28;20022;-75
2021/09/28 12:44:29;;;;;;;9.45;2.35;;;20.70;59.30;;;;;;5096831;28;20073;-75
2021/09/28 12:46:54;;;;;;;6.60;2.28;;;20.70;58.00;;;;;;5082556;28;20035;-72
2021/09/28 12:49:28;;;;;;;7.00;1.75;;;20.70;58.10;;;;;;5084079;28;20066;-72
2021/09/28 12:51:54;;;;;;;8.43;2.15;;;20.80;57.30;;;;;;5100376;28;20034;-73
2021/09/28 12:54:21;;;;;;;9.43;1.85;;;20.90;56.90;;;;;;5089500;28;20025;-75
2021/09/28 12:56:46;;;;;;;8.73;2.03;;;21.00;57.00;;;;;;5092293;28;20425;-75
2021/09/28 12:59:12;;;;;;;6.15;1.90;;;21.10;57.40;;;;;;5084078;28;20035;-75
2021/09/28 13:01:45;;;;;;;5.95;2.20;;;21.10;57.70;;;;;;5101468;28;20970;-73